sensor_id;sensor_type;location;lat;lon;timestamp;pressure;altitude;pressure_sealevel;temperature;humidity
77889;BME280;67082;41.704;44.768;2023-02-01T00:01:26;94897.78;;;7.75;65.46
77889;BME280;67082;41.704;44.768;2023-02-01T00:03:54;94894.69;;;8.03;64.77
77889;BME280;67082;41.704;44.768;2023-02-01T00:06:22;94902.06;;;8.06;63.94
77889;BME280;67082;41.704;44.768;2023-02-01T00:08:54;94901.31;;;8.06;64.08
77889;BME280;67082;41.704;44.768;2023-02-01T00:11:23;94904.31;;;7.99;64.41
77889;BME280;67082;41.704;44.768;2023-02-01T00:13:52;94895.16;;;8.02;63.88
77889;BME280;67082;41.704;44.768;2023-02-01T00:16:23;94896.81;;;7.99;65.01
77889;BME280;67082;41.704;44.768;2023-02-01T00:18:57;94894.06;;;7.99;64.75
77889;BME280;67082;41.704;44.768;2023-02-01T00:21:26;94894.06;;;7.99;64.68
77889;BME280;67082;41.704;44.768;2023-02-01T00:23:56;94877.94;;;7.89;64.76
77889;BME280;67082;41.704;44.768;2023-02-01T00:29:02;94878.69;;;7.89;63.74
77889;BME280;67082;41.704;44.768;2023-02-01T00:31:31;94875.03;;;7.92;63.99
77889;BME280;67082;41.704;44.768;2023-02-01T00:33:59;94876.88;;;7.95;64.16
77889;BME280;67082;41.704;44.768;2023-02-01T00:36:27;94882.22;;;7.90;63.83
77889;BME280;67082;41.704;44.768;2023-02-01T00:38:57;94869.66;;;7.89;63.42
77889;BME280;67082;41.704;44.768;2023-02-01T00:41:25;94877.66;;;7.96;64.20
77889;BME280;67082;41.704;44.768;2023-02-01T00:43:53;94882.69;;;7.88;63.48
77889;BME280;67082;41.704;44.768;2023-02-01T00:46:22;94864.75;;;7.84;63.66
77889;BME280;67082;41.704;44.768;2023-02-01T00:48:50;94872.09;;;7.87;64.14
77889;BME280;67082;41.704;44.768;2023-02-01T00:51:21;94882.81;;;7.85;63.79
77889;BME280;67082;41.704;44.768;2023-02-01T00:53:50;94885.88;;;7.78;65.86
77889;BME280;67082;41.704;44.768;2023-02-01T00:56:18;94884.59;;;7.70;65.52
77889;BME280;67082;41.704;44.768;2023-02-01T00:58:48;94876.94;;;7.74;65.63
77889;BME280;67082;41.704;44.768;2023-02-01T01:01:23;94882.16;;;7.72;65.36
77889;BME280;67082;41.704;44.768;2023-02-01T01:03:57;94877.25;;;7.76;65.22
77889;BME280;67082;41.704;44.768;2023-02-01T01:06:29;94874.50;;;7.76;64.77
77889;BME280;67082;41.704;44.768;2023-02-01T01:09:00;94874.84;;;7.78;64.71
77889;BME280;67082;41.704;44.768;2023-02-01T01:11:31;94872.22;;;7.74;64.13
77889;BME280;67082;41.704;44.768;2023-02-01T01:14:03;94876.31;;;7.70;63.76
77889;BME280;67082;41.704;44.768;2023-02-01T01:16:32;94873.41;;;7.73;63.57
77889;BME280;67082;41.704;44.768;2023-02-01T01:19:02;94858.22;;;7.60;64.19
77889;BME280;67082;41.704;44.768;2023-02-01T01:21:30;94867.06;;;7.55;64.78
77889;BME280;67082;41.704;44.768;2023-02-01T01:23:59;94868.63;;;7.65;63.91
77889;BME280;67082;41.704;44.768;2023-02-01T01:26:28;94867.59;;;7.71;64.16
77889;BME280;67082;41.704;44.768;2023-02-01T01:28:58;94873.91;;;7.81;64.42
77889;BME280;67082;41.704;44.768;2023-02-01T01:31:27;94854.59;;;7.72;65.03
77889;BME280;67082;41.704;44.768;2023-02-01T01:33:57;94870.53;;;7.77;64.41
77889;BME280;67082;41.704;44.768;2023-02-01T01:36:27;94855.94;;;7.67;65.38
77889;BME280;67082;41.704;44.768;2023-02-01T01:38:56;94864.84;;;7.71;64.78
77889;BME280;67082;41.704;44.768;2023-02-01T01:41:27;94857.66;;;7.74;64.40
77889;BME280;67082;41.704;44.768;2023-02-01T01:44:02;94874.19;;;7.74;65.18
77889;BME280;67082;41.704;44.768;2023-02-01T01:46:37;94863.16;;;7.74;64.22
77889;BME280;67082;41.704;44.768;2023-02-01T01:49:15;94862.38;;;7.73;64.86
77889;BME280;67082;41.704;44.768;2023-02-01T01:51:51;94857.50;;;7.68;64.34
77889;BME280;67082;41.704;44.768;2023-02-01T01:54:27;94865.28;;;7.70;64.53
77889;BME280;67082;41.704;44.768;2023-02-01T01:57:00;94862.22;;;7.68;64.75
77889;BME280;67082;41.704;44.768;2023-02-01T01:59:31;94864.09;;;7.71;64.28
77889;BME280;67082;41.704;44.768;2023-02-01T02:02:00;94856.72;;;7.68;64.09
77889;BME280;67082;41.704;44.768;2023-02-01T02:04:36;94865.88;;;7.65;63.90
77889;BME280;67082;41.704;44.768;2023-02-01T02:07:09;94866.66;;;7.65;64.31
77889;BME280;67082;41.704;44.768;2023-02-01T02:09:40;94868.03;;;7.70;63.57
77889;BME280;67082;41.704;44.768;2023-02-01T02:12:21;94862.38;;;7.64;63.41
77889;BME280;67082;41.704;44.768;2023-02-01T02:14:50;94864.31;;;7.55;64.09
77889;BME280;67082;41.704;44.768;2023-02-01T02:17:34;94869.81;;;7.55;63.87
77889;BME280;67082;41.704;44.768;2023-02-01T02:26:24;94876.56;;;7.54;64.30
77889;BME280;67082;41.704;44.768;2023-02-01T02:34:33;94879.91;;;7.49;64.95
77889;BME280;67082;41.704;44.768;2023-02-01T02:42:42;94871.66;;;7.58;65.13
77889;BME280;67082;41.704;44.768;2023-02-01T02:48:46;94870.84;;;7.48;64.78
77889;BME280;67082;41.704;44.768;2023-02-01T02:51:21;94869.97;;;7.51;64.47
77889;BME280;67082;41.704;44.768;2023-02-01T02:54:17;94869.03;;;7.54;64.52
77889;BME280;67082;41.704;44.768;2023-02-01T02:57:07;94857.25;;;7.54;64.83
77889;BME280;67082;41.704;44.768;2023-02-01T03:00:02;94866.50;;;7.38;64.94
77889;BME280;67082;41.704;44.768;2023-02-01T03:02:50;94872.06;;;7.47;64.74
77889;BME280;67082;41.704;44.768;2023-02-01T03:05:42;94877.44;;;7.51;64.13
77889;BME280;67082;41.704;44.768;2023-02-01T03:10:48;94880.84;;;7.55;64.28
77889;BME280;67082;41.704;44.768;2023-02-01T03:13:34;94891.22;;;7.51;63.92
77889;BME280;67082;41.704;44.768;2023-02-01T03:18:51;94879.25;;;7.45;64.41
77889;BME280;67082;41.704;44.768;2023-02-01T03:21:37;94883.63;;;7.12;65.68
77889;BME280;67082;41.704;44.768;2023-02-01T03:24:20;94883.97;;;7.14;64.64
77889;BME280;67082;41.704;44.768;2023-02-01T03:26:54;94885.50;;;7.15;64.91
77889;BME280;67082;41.704;44.768;2023-02-01T03:29:30;94892.97;;;7.14;65.08
77889;BME280;67082;41.704;44.768;2023-02-01T03:32:03;94895.59;;;7.18;64.76
77889;BME280;67082;41.704;44.768;2023-02-01T03:34:31;94882.50;;;7.00;65.22
77889;BME280;67082;41.704;44.768;2023-02-01T03:37:04;94880.81;;;7.03;65.25
77889;BME280;67082;41.704;44.768;2023-02-01T03:40:04;94900.81;;;6.94;65.21
77889;BME280;67082;41.704;44.768;2023-02-01T03:42:43;94899.16;;;6.97;65.02
77889;BME280;67082;41.704;44.768;2023-02-01T03:45:20;94899.31;;;7.02;64.33
77889;BME280;67082;41.704;44.768;2023-02-01T03:47:54;94898.19;;;6.91;65.08
77889;BME280;67082;41.704;44.768;2023-02-01T03:50:26;94893.28;;;6.95;65.21
77889;BME280;67082;41.704;44.768;2023-02-01T03:53:03;94895.47;;;7.00;65.48
77889;BME280;67082;41.704;44.768;2023-02-01T03:55:36;94900.09;;;7.03;64.49
77889;BME280;67082;41.704;44.768;2023-02-01T03:58:15;94899.53;;;7.08;63.95
77889;BME280;67082;41.704;44.768;2023-02-01T04:00:49;94894.06;;;6.95;64.27
77889;BME280;67082;41.704;44.768;2023-02-01T04:03:18;94904.53;;;7.00;64.32
77889;BME280;67082;41.704;44.768;2023-02-01T04:05:46;94894.34;;;6.88;63.68
77889;BME280;67082;41.704;44.768;2023-02-01T04:08:15;94904.38;;;6.82;64.26
77889;BME280;67082;41.704;44.768;2023-02-01T04:10:45;94910.72;;;6.92;63.59
77889;BME280;67082;41.704;44.768;2023-02-01T04:13:14;94909.09;;;6.82;64.38
77889;BME280;67082;41.704;44.768;2023-02-01T04:15:42;94919.19;;;6.63;64.79
77889;BME280;67082;41.704;44.768;2023-02-01T04:18:11;94916.22;;;6.58;64.08
77889;BME280;67082;41.704;44.768;2023-02-01T04:20:39;94929.47;;;6.38;65.27
77889;BME280;67082;41.704;44.768;2023-02-01T04:23:07;94926.09;;;6.34;64.63
77889;BME280;67082;41.704;44.768;2023-02-01T04:25:35;94928.50;;;6.32;64.56
77889;BME280;67082;41.704;44.768;2023-02-01T04:28:04;94941.28;;;6.13;64.80
77889;BME280;67082;41.704;44.768;2023-02-01T04:30:32;94948.09;;;6.34;64.32
77889;BME280;67082;41.704;44.768;2023-02-01T04:33:01;94940.47;;;6.38;63.71
77889;BME280;67082;41.704;44.768;2023-02-01T04:35:33;94948.09;;;6.34;64.22
77889;BME280;67082;41.704;44.768;2023-02-01T04:38:02;94956.00;;;6.32;64.24
77889;BME280;67082;41.704;44.768;2023-02-01T04:40:29;94939.38;;;6.35;63.46
77889;BME280;67082;41.704;44.768;2023-02-01T04:43:00;94948.84;;;6.34;63.51
77889;BME280;67082;41.704;44.768;2023-02-01T04:45:28;94951.03;;;6.52;63.29
77889;BME280;67082;41.704;44.768;2023-02-01T04:47:57;94955.38;;;6.28;62.32
77889;BME280;67082;41.704;44.768;2023-02-01T04:50:25;94962.28;;;6.32;61.95
77889;BME280;67082;41.704;44.768;2023-02-01T04:52:54;94965.53;;;6.52;61.75
77889;BME280;67082;41.704;44.768;2023-02-01T04:55:22;94965.09;;;6.54;61.25
77889;BME280;67082;41.704;44.768;2023-02-01T04:57:50;94955.75;;;6.51;61.68
77889;BME280;67082;41.704;44.768;2023-02-01T05:00:19;94963.88;;;6.67;60.76
77889;BME280;67082;41.704;44.768;2023-02-01T05:02:48;94966.13;;;6.81;60.62
77889;BME280;67082;41.704;44.768;2023-02-01T05:05:16;94961.31;;;6.73;61.12
77889;BME280;67082;41.704;44.768;2023-02-01T05:07:46;94965.84;;;6.67;62.21
77889;BME280;67082;41.704;44.768;2023-02-01T05:10:16;94970.34;;;6.86;61.64
77889;BME280;67082;41.704;44.768;2023-02-01T05:12:45;94977.91;;;6.94;60.67
77889;BME280;67082;41.704;44.768;2023-02-01T05:15:31;94978.03;;;6.91;61.68
77889;BME280;67082;41.704;44.768;2023-02-01T05:17:59;94976.13;;;7.00;61.61
77889;BME280;67082;41.704;44.768;2023-02-01T05:20:27;94981.53;;;6.91;60.73
77889;BME280;67082;41.704;44.768;2023-02-01T05:22:55;94977.78;;;6.98;61.66
77889;BME280;67082;41.704;44.768;2023-02-01T05:25:23;94982.34;;;7.13;60.38
77889;BME280;67082;41.704;44.768;2023-02-01T05:27:53;94981.34;;;7.20;58.94
77889;BME280;67082;41.704;44.768;2023-02-01T05:30:21;94992.13;;;7.27;59.00
77889;BME280;67082;41.704;44.768;2023-02-01T05:32:51;94989.16;;;7.21;58.31
77889;BME280;67082;41.704;44.768;2023-02-01T05:35:20;94991.41;;;7.35;58.98
77889;BME280;67082;41.704;44.768;2023-02-01T05:37:48;94996.41;;;7.49;58.84
77889;BME280;67082;41.704;44.768;2023-02-01T05:40:16;94999.38;;;7.55;58.82
77889;BME280;67082;41.704;44.768;2023-02-01T05:42:44;94993.88;;;7.55;57.63
77889;BME280;67082;41.704;44.768;2023-02-01T05:45:14;95001.94;;;7.71;57.78
77889;BME280;67082;41.704;44.768;2023-02-01T05:47:42;95006.91;;;7.85;57.81
77889;BME280;67082;41.704;44.768;2023-02-01T05:50:10;95000.50;;;7.88;57.12
77889;BME280;67082;41.704;44.768;2023-02-01T05:52:38;95005.63;;;7.98;57.60
77889;BME280;67082;41.704;44.768;2023-02-01T05:55:06;95003.75;;;8.17;57.50
77889;BME280;67082;41.704;44.768;2023-02-01T05:57:35;95010.31;;;8.19;56.64
77889;BME280;67082;41.704;44.768;2023-02-01T06:00:03;95010.25;;;8.23;56.46
77889;BME280;67082;41.704;44.768;2023-02-01T06:02:39;95020.28;;;8.47;56.37
77889;BME280;67082;41.704;44.768;2023-02-01T06:05:08;95018.75;;;8.46;55.95
77889;BME280;67082;41.704;44.768;2023-02-01T06:07:37;95024.47;;;8.52;55.81
77889;BME280;67082;41.704;44.768;2023-02-01T06:10:07;95018.81;;;8.64;55.79
77889;BME280;67082;41.704;44.768;2023-02-01T06:12:36;95019.75;;;8.70;56.39
77889;BME280;67082;41.704;44.768;2023-02-01T06:15:05;95011.97;;;8.78;55.33
77889;BME280;67082;41.704;44.768;2023-02-01T06:17:33;95014.38;;;8.67;56.05
77889;BME280;67082;41.704;44.768;2023-02-01T06:20:02;95017.97;;;8.85;55.67
77889;BME280;67082;41.704;44.768;2023-02-01T06:22:32;95011.31;;;8.65;56.03
77889;BME280;67082;41.704;44.768;2023-02-01T06:25:00;95018.88;;;8.82;54.80
77889;BME280;67082;41.704;44.768;2023-02-01T06:27:29;95014.78;;;8.96;55.62
77889;BME280;67082;41.704;44.768;2023-02-01T06:29:57;95010.00;;;8.78;54.42
77889;BME280;67082;41.704;44.768;2023-02-01T06:32:27;95027.63;;;8.81;54.64
77889;BME280;67082;41.704;44.768;2023-02-01T06:34:54;95028.75;;;8.53;55.32
77889;BME280;67082;41.704;44.768;2023-02-01T06:37:24;95010.94;;;8.45;56.40
77889;BME280;67082;41.704;44.768;2023-02-01T06:39:53;95022.06;;;8.63;55.72
77889;BME280;67082;41.704;44.768;2023-02-01T06:42:21;95024.44;;;8.43;56.75
77889;BME280;67082;41.704;44.768;2023-02-01T06:44:50;95014.91;;;8.35;55.88
77889;BME280;67082;41.704;44.768;2023-02-01T06:47:19;95015.84;;;8.50;56.25
77889;BME280;67082;41.704;44.768;2023-02-01T06:49:47;95015.31;;;8.64;55.69
77889;BME280;67082;41.704;44.768;2023-02-01T06:52:16;95012.00;;;8.96;54.63
77889;BME280;67082;41.704;44.768;2023-02-01T06:54:43;95011.75;;;9.12;54.47
77889;BME280;67082;41.704;44.768;2023-02-01T06:57:12;95012.69;;;9.36;53.51
77889;BME280;67082;41.704;44.768;2023-02-01T06:59:40;95006.84;;;9.52;53.43
77889;BME280;67082;41.704;44.768;2023-02-01T07:02:11;95024.66;;;9.69;53.62
77889;BME280;67082;41.704;44.768;2023-02-01T07:04:39;95013.63;;;9.51;53.97
77889;BME280;67082;41.704;44.768;2023-02-01T07:07:07;95014.22;;;9.37;54.22
77889;BME280;67082;41.704;44.768;2023-02-01T07:09:35;95005.00;;;9.58;52.55
77889;BME280;67082;41.704;44.768;2023-02-01T07:12:04;95008.09;;;9.51;53.48
77889;BME280;67082;41.704;44.768;2023-02-01T07:14:32;95013.00;;;9.56;53.23
77889;BME280;67082;41.704;44.768;2023-02-01T07:17:00;94997.78;;;9.33;54.22
77889;BME280;67082;41.704;44.768;2023-02-01T07:19:29;95006.38;;;9.26;54.48
77889;BME280;67082;41.704;44.768;2023-02-01T07:21:57;95002.44;;;8.79;56.20
77889;BME280;67082;41.704;44.768;2023-02-01T07:24:25;95008.13;;;8.75;56.63
77889;BME280;67082;41.704;44.768;2023-02-01T07:26:53;95014.38;;;8.67;55.59
77889;BME280;67082;41.704;44.768;2023-02-01T07:29:21;95012.81;;;8.57;55.71
77889;BME280;67082;41.704;44.768;2023-02-01T07:31:49;95002.97;;;8.47;56.69
77889;BME280;67082;41.704;44.768;2023-02-01T07:34:17;95004.78;;;8.41;56.07
77889;BME280;67082;41.704;44.768;2023-02-01T07:36:46;95003.22;;;8.31;56.88
77889;BME280;67082;41.704;44.768;2023-02-01T07:39:16;95000.75;;;8.33;56.89
77889;BME280;67082;41.704;44.768;2023-02-01T07:41:45;95003.03;;;8.65;56.39
77889;BME280;67082;41.704;44.768;2023-02-01T07:44:13;94997.72;;;8.79;55.28
77889;BME280;67082;41.704;44.768;2023-02-01T07:46:41;94998.56;;;8.58;55.89
77889;BME280;67082;41.704;44.768;2023-02-01T07:49:10;94979.44;;;8.82;54.68
77889;BME280;67082;41.704;44.768;2023-02-01T07:51:40;94985.19;;;8.48;55.92
77889;BME280;67082;41.704;44.768;2023-02-01T07:54:08;94981.84;;;8.62;56.03
77889;BME280;67082;41.704;44.768;2023-02-01T07:56:36;94979.28;;;8.67;55.38
77889;BME280;67082;41.704;44.768;2023-02-01T07:59:04;94980.03;;;8.68;55.97
77889;BME280;67082;41.704;44.768;2023-02-01T08:01:35;94960.78;;;8.16;56.56
77889;BME280;67082;41.704;44.768;2023-02-01T08:04:03;94979.00;;;8.35;55.88
77889;BME280;67082;41.704;44.768;2023-02-01T08:06:33;94971.28;;;8.60;55.53
77889;BME280;67082;41.704;44.768;2023-02-01T08:09:03;94967.00;;;8.68;55.44
77889;BME280;67082;41.704;44.768;2023-02-01T08:11:32;94967.03;;;8.86;54.85
77889;BME280;67082;41.704;44.768;2023-02-01T08:14:00;94965.91;;;8.66;56.34
77889;BME280;67082;41.704;44.768;2023-02-01T08:16:29;94962.88;;;8.82;55.27
77889;BME280;67082;41.704;44.768;2023-02-01T08:18:58;94951.00;;;8.54;55.07
77889;BME280;67082;41.704;44.768;2023-02-01T08:21:28;94958.56;;;8.72;55.01
77889;BME280;67082;41.704;44.768;2023-02-01T08:24:06;94950.56;;;8.74;55.20
77889;BME280;67082;41.704;44.768;2023-02-01T08:26:34;94946.44;;;8.60;56.02
77889;BME280;67082;41.704;44.768;2023-02-01T08:29:05;94948.88;;;8.76;55.22
77889;BME280;67082;41.704;44.768;2023-02-01T08:31:34;94942.84;;;8.51;55.29
77889;BME280;67082;41.704;44.768;2023-02-01T08:34:03;94942.63;;;8.76;55.20
77889;BME280;67082;41.704;44.768;2023-02-01T08:36:36;94944.91;;;8.68;54.51
77889;BME280;67082;41.704;44.768;2023-02-01T08:39:05;94933.13;;;8.95;54.75
77889;BME280;67082;41.704;44.768;2023-02-01T08:41:37;94931.59;;;9.12;53.87
77889;BME280;67082;41.704;44.768;2023-02-01T08:44:05;94921.91;;;9.34;53.44
77889;BME280;67082;41.704;44.768;2023-02-01T08:46:33;94914.38;;;9.08;53.08
77889;BME280;67082;41.704;44.768;2023-02-01T08:49:01;94916.06;;;9.05;52.95
77889;BME280;67082;41.704;44.768;2023-02-01T08:51:30;94908.38;;;8.82;53.94
77889;BME280;67082;41.704;44.768;2023-02-01T08:53:58;94905.50;;;8.95;53.94
77889;BME280;67082;41.704;44.768;2023-02-01T08:56:26;94894.28;;;8.98;52.48
77889;BME280;67082;41.704;44.768;2023-02-01T08:58:54;94898.91;;;9.19;53.01
77889;BME280;67082;41.704;44.768;2023-02-01T09:01:23;94902.13;;;9.27;52.99
77889;BME280;67082;41.704;44.768;2023-02-01T09:03:51;94887.84;;;9.19;52.94
77889;BME280;67082;41.704;44.768;2023-02-01T09:06:19;94891.81;;;9.36;52.28
77889;BME280;67082;41.704;44.768;2023-02-01T09:08:47;94885.22;;;9.07;52.79
77889;BME280;67082;41.704;44.768;2023-02-01T09:11:17;94888.00;;;8.98;53.70
77889;BME280;67082;41.704;44.768;2023-02-01T09:13:47;94887.22;;;9.15;53.34
77889;BME280;67082;41.704;44.768;2023-02-01T09:16:17;94879.09;;;9.03;53.28
77889;BME280;67082;41.704;44.768;2023-02-01T09:18:45;94879.97;;;9.36;52.77
77889;BME280;67082;41.704;44.768;2023-02-01T09:21:29;94882.56;;;9.48;52.54
77889;BME280;67082;41.704;44.768;2023-02-01T09:23:57;94879.13;;;9.71;51.65
77889;BME280;67082;41.704;44.768;2023-02-01T09:26:26;94873.44;;;9.75;52.05
77889;BME280;67082;41.704;44.768;2023-02-01T09:29:00;94864.53;;;9.71;52.00
77889;BME280;67082;41.704;44.768;2023-02-01T09:31:30;94870.34;;;9.82;51.71
77889;BME280;67082;41.704;44.768;2023-02-01T09:33:58;94865.16;;;9.75;51.22
77889;BME280;67082;41.704;44.768;2023-02-01T09:36:27;94854.19;;;9.80;51.34
77889;BME280;67082;41.704;44.768;2023-02-01T09:38:58;94851.31;;;9.75;51.42
77889;BME280;67082;41.704;44.768;2023-02-01T09:47:18;94850.13;;;10.08;49.65
77889;BME280;67082;41.704;44.768;2023-02-01T09:50:10;94839.31;;;9.78;50.67
77889;BME280;67082;41.704;44.768;2023-02-01T09:52:43;94833.13;;;9.83;49.71
77889;BME280;67082;41.704;44.768;2023-02-01T09:55:18;94826.53;;;9.80;50.59
77889;BME280;67082;41.704;44.768;2023-02-01T09:57:58;94824.78;;;10.01;49.14
77889;BME280;67082;41.704;44.768;2023-02-01T10:00:37;94820.00;;;10.01;49.22
77889;BME280;67082;41.704;44.768;2023-02-01T10:03:12;94819.81;;;10.14;49.48
77889;BME280;67082;41.704;44.768;2023-02-01T10:10:58;94819.34;;;10.15;48.89
77889;BME280;67082;41.704;44.768;2023-02-01T10:14:43;94806.16;;;10.34;48.13
77889;BME280;67082;41.704;44.768;2023-02-01T10:27:53;94803.38;;;10.34;47.64
77889;BME280;67082;41.704;44.768;2023-02-01T10:30:23;94794.53;;;10.21;46.10
77889;BME280;67082;41.704;44.768;2023-02-01T10:32:57;94791.84;;;10.35;46.47
77889;BME280;67082;41.704;44.768;2023-02-01T10:35:34;94790.41;;;10.40;45.40
77889;BME280;67082;41.704;44.768;2023-02-01T10:38:12;94789.16;;;10.64;45.17
77889;BME280;67082;41.704;44.768;2023-02-01T10:40:43;94796.31;;;10.56;45.69
77889;BME280;67082;41.704;44.768;2023-02-01T10:43:12;94796.69;;;10.63;45.18
77889;BME280;67082;41.704;44.768;2023-02-01T10:45:40;94789.84;;;10.73;44.83
77889;BME280;67082;41.704;44.768;2023-02-01T10:48:10;94781.69;;;10.56;44.91
77889;BME280;67082;41.704;44.768;2023-02-01T10:50:44;94786.44;;;10.55;45.00
77889;BME280;67082;41.704;44.768;2023-02-01T10:55:55;94784.81;;;10.86;43.53
77889;BME280;67082;41.704;44.768;2023-02-01T10:58:28;94783.50;;;10.96;44.17
77889;BME280;67082;41.704;44.768;2023-02-01T11:01:01;94783.59;;;10.88;44.05
77889;BME280;67082;41.704;44.768;2023-02-01T11:03:37;94788.38;;;11.01;44.13
77889;BME280;67082;41.704;44.768;2023-02-01T11:16:54;94770.69;;;11.57;43.61
77889;BME280;67082;41.704;44.768;2023-02-01T11:19:23;94779.63;;;11.61;43.26
77889;BME280;67082;41.704;44.768;2023-02-01T11:21:53;94771.75;;;11.45;43.32
77889;BME280;67082;41.704;44.768;2023-02-01T11:24:31;94764.94;;;11.46;43.72
77889;BME280;67082;41.704;44.768;2023-02-01T11:27:05;94783.63;;;11.45;44.81
77889;BME280;67082;41.704;44.768;2023-02-01T11:29:55;94768.22;;;11.44;43.68
77889;BME280;67082;41.704;44.768;2023-02-01T11:32:25;94772.31;;;11.49;44.38
77889;BME280;67082;41.704;44.768;2023-02-01T11:35:01;94772.81;;;11.62;43.70
77889;BME280;67082;41.704;44.768;2023-02-01T11:37:35;94772.03;;;11.61;44.33
77889;BME280;67082;41.704;44.768;2023-02-01T11:43:00;94779.31;;;11.73;44.41
77889;BME280;67082;41.704;44.768;2023-02-01T11:45:34;94777.69;;;11.52;43.63
77889;BME280;67082;41.704;44.768;2023-02-01T11:48:10;94769.56;;;11.63;43.73
77889;BME280;67082;41.704;44.768;2023-02-01T11:51:26;94769.75;;;11.74;44.63
77889;BME280;67082;41.704;44.768;2023-02-01T11:54:05;94776.81;;;11.75;44.64
77889;BME280;67082;41.704;44.768;2023-02-01T11:56:36;94776.69;;;11.84;45.01
77889;BME280;67082;41.704;44.768;2023-02-01T11:59:14;94768.78;;;11.63;45.92
77889;BME280;67082;41.704;44.768;2023-02-01T12:16:35;94786.09;;;11.43;47.75
77889;BME280;67082;41.704;44.768;2023-02-01T12:22:22;94780.34;;;11.61;48.58
77889;BME280;67082;41.704;44.768;2023-02-01T12:27:55;94782.38;;;11.46;50.76
77889;BME280;67082;41.704;44.768;2023-02-01T12:30:48;94781.03;;;11.56;51.50
77889;BME280;67082;41.704;44.768;2023-02-01T12:39:32;94789.81;;;11.55;52.18
77889;BME280;67082;41.704;44.768;2023-02-01T12:42:22;94784.47;;;11.51;52.04
77889;BME280;67082;41.704;44.768;2023-02-01T12:45:02;94791.75;;;11.34;53.12
77889;BME280;67082;41.704;44.768;2023-02-01T12:47:57;94792.69;;;11.31;53.28
77889;BME280;67082;41.704;44.768;2023-02-01T12:50:35;94789.44;;;11.18;53.41
77889;BME280;67082;41.704;44.768;2023-02-01T12:53:29;94800.81;;;11.20;53.72
77889;BME280;67082;41.704;44.768;2023-02-01T12:56:03;94807.13;;;11.35;53.20
77889;BME280;67082;41.704;44.768;2023-02-01T12:58:44;94796.13;;;11.26;53.34
77889;BME280;67082;41.704;44.768;2023-02-01T13:06:46;94807.91;;;11.21;53.33
77889;BME280;67082;41.704;44.768;2023-02-01T13:11:48;94800.50;;;11.04;53.67
77889;BME280;67082;41.704;44.768;2023-02-01T13:14:42;94799.47;;;11.16;52.63
77889;BME280;67082;41.704;44.768;2023-02-01T13:17:23;94803.34;;;10.95;53.13
77889;BME280;67082;41.704;44.768;2023-02-01T13:19:57;94794.94;;;10.89;53.21
77889;BME280;67082;41.704;44.768;2023-02-01T13:22:43;94799.16;;;10.85;52.61
77889;BME280;67082;41.704;44.768;2023-02-01T13:25:19;94814.72;;;10.82;52.66
77889;BME280;67082;41.704;44.768;2023-02-01T13:27:56;94822.63;;;10.75;53.12
77889;BME280;67082;41.704;44.768;2023-02-01T13:30:34;94826.81;;;10.71;53.51
77889;BME280;67082;41.704;44.768;2023-02-01T13:39:25;94824.19;;;10.53;54.22
77889;BME280;67082;41.704;44.768;2023-02-01T13:42:03;94815.41;;;10.31;53.73
77889;BME280;67082;41.704;44.768;2023-02-01T13:44:39;94831.31;;;10.45;52.95
77889;BME280;67082;41.704;44.768;2023-02-01T13:47:30;94834.53;;;10.43;52.96
77889;BME280;67082;41.704;44.768;2023-02-01T13:50:13;94813.53;;;10.37;52.17
77889;BME280;67082;41.704;44.768;2023-02-01T13:52:55;94824.88;;;10.39;51.95
77889;BME280;67082;41.704;44.768;2023-02-01T13:55:45;94847.31;;;10.41;52.13
77889;BME280;67082;41.704;44.768;2023-02-01T13:58:29;94852.16;;;10.31;52.13
77889;BME280;67082;41.704;44.768;2023-02-01T14:04:04;94849.19;;;10.35;51.84
77889;BME280;67082;41.704;44.768;2023-02-01T14:06:44;94846.75;;;10.37;51.37
77889;BME280;67082;41.704;44.768;2023-02-01T14:09:16;94854.00;;;10.34;51.23
77889;BME280;67082;41.704;44.768;2023-02-01T14:11:55;94848.50;;;10.25;51.81
77889;BME280;67082;41.704;44.768;2023-02-01T14:19:26;94855.22;;;10.57;51.07
77889;BME280;67082;41.704;44.768;2023-02-01T14:21:59;94870.59;;;10.57;50.27
77889;BME280;67082;41.704;44.768;2023-02-01T14:24:32;94854.06;;;10.49;51.00
77889;BME280;67082;41.704;44.768;2023-02-01T14:27:07;94873.22;;;10.61;50.95
77889;BME280;67082;41.704;44.768;2023-02-01T14:29:51;94874.94;;;10.59;50.96
77889;BME280;67082;41.704;44.768;2023-02-01T14:32:31;94881.69;;;10.57;51.10
77889;BME280;67082;41.704;44.768;2023-02-01T14:35:05;94880.22;;;10.48;50.21
77889;BME280;67082;41.704;44.768;2023-02-01T14:37:37;94874.69;;;10.48;50.27
77889;BME280;67082;41.704;44.768;2023-02-01T14:40:18;94890.94;;;10.55;50.42
77889;BME280;67082;41.704;44.768;2023-02-01T14:42:49;94891.94;;;10.43;50.27
77889;BME280;67082;41.704;44.768;2023-02-01T14:50:40;94897.94;;;10.41;50.63
77889;BME280;67082;41.704;44.768;2023-02-01T14:55:44;94909.81;;;10.42;51.51
77889;BME280;67082;41.704;44.768;2023-02-01T14:58:47;94903.31;;;10.45;50.00
77889;BME280;67082;41.704;44.768;2023-02-01T15:04:11;94919.31;;;10.41;51.02
77889;BME280;67082;41.704;44.768;2023-02-01T15:06:49;94923.03;;;10.38;50.99
77889;BME280;67082;41.704;44.768;2023-02-01T15:09:32;94934.75;;;10.33;50.84
77889;BME280;67082;41.704;44.768;2023-02-01T15:14:41;94948.03;;;10.20;51.86
77889;BME280;67082;41.704;44.768;2023-02-01T15:17:22;94947.63;;;9.94;50.78
77889;BME280;67082;41.704;44.768;2023-02-01T15:19:58;94971.75;;;9.94;51.35
77889;BME280;67082;41.704;44.768;2023-02-01T15:22:28;94978.41;;;9.60;52.91
77889;BME280;67082;41.704;44.768;2023-02-01T15:24:59;94984.09;;;9.84;52.45
77889;BME280;67082;41.704;44.768;2023-02-01T15:27:31;94987.56;;;10.02;52.38
77889;BME280;67082;41.704;44.768;2023-02-01T15:30:26;94986.53;;;10.09;52.00
77889;BME280;67082;41.704;44.768;2023-02-01T15:35:45;94987.56;;;10.02;51.92
77889;BME280;67082;41.704;44.768;2023-02-01T15:41:18;94990.47;;;10.17;52.51
77889;BME280;67082;41.704;44.768;2023-02-01T15:44:07;95000.19;;;10.21;52.25